sensor_id;sensor_type;location;lat;lon;timestamp;pressure;altitude;pressure_sealevel;temperature;humidity
46081;BME280;31821;51.880;-0.518;2022-09-09T00:00:46;99259.78;;;24.15;42.71
46081;BME280;31821;51.880;-0.518;2022-09-09T00:03:19;99288.53;;;24.27;42.54
46081;BME280;31821;51.880;-0.518;2022-09-09T00:06:03;99286.91;;;24.29;42.08
46081;BME280;31821;51.880;-0.518;2022-09-09T00:08:59;99290.44;;;24.33;41.98
46081;BME280;31821;51.880;-0.518;2022-09-09T00:11:52;99235.00;;;24.07;42.08
46081;BME280;31821;51.880;-0.518;2022-09-09T00:16:56;99277.94;;;24.34;42.27
46081;BME280;31821;51.880;-0.518;2022-09-09T00:19:36;99275.44;;;24.40;42.52
46081;BME280;31821;51.880;-0.518;2022-09-09T00:22:20;99279.78;;;24.45;42.04
46081;BME280;31821;51.880;-0.518;2022-09-09T00:24:51;99265.41;;;24.39;42.49
46081;BME280;31821;51.880;-0.518;2022-09-09T00:27:37;99232.03;;;24.14;42.45
46081;BME280;31821;51.880;-0.518;2022-09-09T00:30:23;99264.94;;;24.44;42.42
46081;BME280;31821;51.880;-0.518;2022-09-09T00:32:53;99278.03;;;24.31;42.32
46081;BME280;31821;51.880;-0.518;2022-09-09T00:35:33;99277.25;;;24.30;42.89
46081;BME280;31821;51.880;-0.518;2022-09-09T00:38:11;99268.03;;;24.26;42.20
46081;BME280;31821;51.880;-0.518;2022-09-09T00:43:32;99276.72;;;24.35;42.02
46081;BME280;31821;51.880;-0.518;2022-09-09T00:46:21;99248.28;;;24.06;42.47
46081;BME280;31821;51.880;-0.518;2022-09-09T00:54:33;99274.47;;;24.27;42.43
46081;BME280;31821;51.880;-0.518;2022-09-09T00:57:13;99243.81;;;24.09;42.92
46081;BME280;31821;51.880;-0.518;2022-09-09T00:59:47;99257.13;;;24.04;42.73
46081;BME280;31821;51.880;-0.518;2022-09-09T01:02:28;99279.75;;;24.25;42.22
46081;BME280;31821;51.880;-0.518;2022-09-09T01:05:12;99259.66;;;24.23;41.98
46081;BME280;31821;51.880;-0.518;2022-09-09T01:07:40;99275.50;;;24.37;42.66
46081;BME280;31821;51.880;-0.518;2022-09-09T01:10:19;99230.22;;;24.03;42.37
46081;BME280;31821;51.880;-0.518;2022-09-09T01:12:51;99275.56;;;24.33;42.26
46081;BME280;31821;51.880;-0.518;2022-09-09T01:15:25;99267.97;;;24.30;41.76
46081;BME280;31821;51.880;-0.518;2022-09-09T01:20:18;99277.66;;;24.29;41.80
46081;BME280;31821;51.880;-0.518;2022-09-09T01:28:25;99273.19;;;24.08;42.80
46081;BME280;31821;51.880;-0.518;2022-09-09T01:30:52;99276.13;;;24.00;42.62
46081;BME280;31821;51.880;-0.518;2022-09-09T01:33:18;99261.84;;;23.84;42.60
46081;BME280;31821;51.880;-0.518;2022-09-09T01:38:17;99262.72;;;23.81;42.86
46081;BME280;31821;51.880;-0.518;2022-09-09T01:40:43;99226.22;;;23.73;42.23
46081;BME280;31821;51.880;-0.518;2022-09-09T01:43:09;99279.59;;;24.08;42.94
46081;BME280;31821;51.880;-0.518;2022-09-09T01:45:35;99248.81;;;23.97;42.48
46081;BME280;31821;51.880;-0.518;2022-09-09T01:48:02;99273.13;;;24.11;42.95
46081;BME280;31821;51.880;-0.518;2022-09-09T01:50:28;99282.00;;;24.10;42.77
46081;BME280;31821;51.880;-0.518;2022-09-09T01:52:58;99271.09;;;24.12;42.58
46081;BME280;31821;51.880;-0.518;2022-09-09T01:55:32;99241.31;;;23.87;42.89
46081;BME280;31821;51.880;-0.518;2022-09-09T02:00:44;99281.50;;;24.15;42.45
46081;BME280;31821;51.880;-0.518;2022-09-09T02:03:26;99275.03;;;24.18;42.27
46081;BME280;31821;51.880;-0.518;2022-09-09T02:06:54;99277.09;;;24.14;42.14
46081;BME280;31821;51.880;-0.518;2022-09-09T02:08:55;99252.34;;;24.01;41.99
46081;BME280;31821;51.880;-0.518;2022-09-09T02:11:26;99281.06;;;24.16;42.90
46081;BME280;31821;51.880;-0.518;2022-09-09T02:14:02;99274.72;;;24.12;42.86
46081;BME280;31821;51.880;-0.518;2022-09-09T02:16:41;99277.53;;;24.12;42.53
46081;BME280;31821;51.880;-0.518;2022-09-09T02:19:13;99273.50;;;24.13;42.87
46081;BME280;31821;51.880;-0.518;2022-09-09T02:21:42;99278.31;;;24.13;42.37
46081;BME280;31821;51.880;-0.518;2022-09-09T02:24:11;99218.53;;;23.78;42.58
46081;BME280;31821;51.880;-0.518;2022-09-09T02:26:41;99283.09;;;24.16;41.72
46081;BME280;31821;51.880;-0.518;2022-09-09T02:29:14;99239.22;;;23.95;42.04
46081;BME280;31821;51.880;-0.518;2022-09-09T02:31:42;99242.91;;;23.88;41.77
46081;BME280;31821;51.880;-0.518;2022-09-09T02:34:09;99283.16;;;24.12;42.50
46081;BME280;31821;51.880;-0.518;2022-09-09T02:36:36;99263.13;;;24.07;42.57
46081;BME280;31821;51.880;-0.518;2022-09-09T02:39:07;99235.63;;;23.91;41.97
46081;BME280;31821;51.880;-0.518;2022-09-09T02:41:36;99258.66;;;24.09;41.48
46081;BME280;31821;51.880;-0.518;2022-09-09T02:44:08;99287.56;;;24.13;41.66
46081;BME280;31821;51.880;-0.518;2022-09-09T02:52:15;99295.50;;;24.18;42.60
46081;BME280;31821;51.880;-0.518;2022-09-09T02:54:44;99256.91;;;23.92;42.11
46081;BME280;31821;51.880;-0.518;2022-09-09T02:59:44;99293.91;;;24.17;42.03
46081;BME280;31821;51.880;-0.518;2022-09-09T03:02:10;99268.13;;;23.95;42.08
46081;BME280;31821;51.880;-0.518;2022-09-09T03:04:40;99240.56;;;23.83;41.99
46081;BME280;31821;51.880;-0.518;2022-09-09T03:07:07;99290.00;;;24.11;42.21
46081;BME280;31821;51.880;-0.518;2022-09-09T03:09:33;99309.59;;;24.18;42.26
46081;BME280;31821;51.880;-0.518;2022-09-09T03:11:59;99243.28;;;23.90;41.99
46081;BME280;31821;51.880;-0.518;2022-09-09T03:14:24;99282.41;;;24.08;41.66
46081;BME280;31821;51.880;-0.518;2022-09-09T03:16:51;99283.53;;;24.14;42.03
46081;BME280;31821;51.880;-0.518;2022-09-09T03:19:16;99293.13;;;24.17;42.44
46081;BME280;31821;51.880;-0.518;2022-09-09T03:21:44;99285.59;;;24.10;42.44
46081;BME280;31821;51.880;-0.518;2022-09-09T03:24:10;99294.72;;;24.18;42.08
46081;BME280;31821;51.880;-0.518;2022-09-09T03:26:36;99264.09;;;23.96;42.46
46081;BME280;31821;51.880;-0.518;2022-09-09T03:29:03;99163.31;;;23.36;41.88
46081;BME280;31821;51.880;-0.518;2022-09-09T03:31:32;99263.69;;;23.94;42.09
46081;BME280;31821;51.880;-0.518;2022-09-09T03:33:58;99304.34;;;24.21;41.92
46081;BME280;31821;51.880;-0.518;2022-09-09T03:36:25;99280.78;;;24.11;42.22
46081;BME280;31821;51.880;-0.518;2022-09-09T03:38:52;99309.13;;;24.24;41.45
46081;BME280;31821;51.880;-0.518;2022-09-09T03:41:17;99288.78;;;24.12;41.17
46081;BME280;31821;51.880;-0.518;2022-09-09T03:43:43;99313.94;;;24.23;42.13
46081;BME280;31821;51.880;-0.518;2022-09-09T03:46:09;99319.56;;;24.23;41.03
46081;BME280;31821;51.880;-0.518;2022-09-09T03:48:35;99270.16;;;23.95;41.09
46081;BME280;31821;51.880;-0.518;2022-09-09T03:51:00;99291.47;;;23.96;41.45
46081;BME280;31821;51.880;-0.518;2022-09-09T03:53:26;99319.75;;;24.12;41.63
46081;BME280;31821;51.880;-0.518;2022-09-09T03:55:54;99290.25;;;23.93;41.04
46081;BME280;31821;51.880;-0.518;2022-09-09T03:58:21;99338.06;;;24.24;41.30
46081;BME280;31821;51.880;-0.518;2022-09-09T04:00:56;99333.25;;;24.25;41.73
46081;BME280;31821;51.880;-0.518;2022-09-09T04:03:23;99337.88;;;24.11;41.82
46081;BME280;31821;51.880;-0.518;2022-09-09T04:05:53;99345.66;;;24.27;41.03
46081;BME280;31821;51.880;-0.518;2022-09-09T04:08:20;99349.81;;;24.19;41.12
46081;BME280;31821;51.880;-0.518;2022-09-09T04:10:47;99338.00;;;24.28;41.78
46081;BME280;31821;51.880;-0.518;2022-09-09T04:13:14;99347.25;;;24.28;41.45
46081;BME280;31821;51.880;-0.518;2022-09-09T04:15:42;99350.06;;;24.28;41.98
46081;BME280;31821;51.880;-0.518;2022-09-09T04:18:08;99351.22;;;24.31;40.85
46081;BME280;31821;51.880;-0.518;2022-09-09T04:20:34;99322.31;;;24.03;41.80
46081;BME280;31821;51.880;-0.518;2022-09-09T04:23:00;99348.91;;;24.26;41.06
46081;BME280;31821;51.880;-0.518;2022-09-09T04:25:26;99352.16;;;24.24;41.09
46081;BME280;31821;51.880;-0.518;2022-09-09T04:27:56;99296.84;;;23.83;41.44
46081;BME280;31821;51.880;-0.518;2022-09-09T04:30:22;99310.00;;;23.89;41.88
46081;BME280;31821;51.880;-0.518;2022-09-09T04:32:48;99300.84;;;23.85;41.42
46081;BME280;31821;51.880;-0.518;2022-09-09T04:35:14;99360.53;;;24.28;41.07
46081;BME280;31821;51.880;-0.518;2022-09-09T04:37:40;99359.38;;;24.25;40.97
46081;BME280;31821;51.880;-0.518;2022-09-09T04:40:07;99360.50;;;24.31;41.35
46081;BME280;31821;51.880;-0.518;2022-09-09T04:42:35;99355.78;;;24.25;41.24
46081;BME280;31821;51.880;-0.518;2022-09-09T04:45:01;99355.66;;;24.32;40.57
46081;BME280;31821;51.880;-0.518;2022-09-09T04:47:27;99362.81;;;24.37;40.94
46081;BME280;31821;51.880;-0.518;2022-09-09T04:49:52;99365.25;;;24.34;40.60
46081;BME280;31821;51.880;-0.518;2022-09-09T04:52:20;99352.56;;;24.23;41.45
46081;BME280;31821;51.880;-0.518;2022-09-09T04:54:45;99348.94;;;24.22;40.72
46081;BME280;31821;51.880;-0.518;2022-09-09T04:57:11;99356.28;;;24.16;41.36
46081;BME280;31821;51.880;-0.518;2022-09-09T04:59:37;99339.25;;;23.99;40.99
46081;BME280;31821;51.880;-0.518;2022-09-09T05:02:03;99346.81;;;24.06;41.90
46081;BME280;31821;51.880;-0.518;2022-09-09T05:04:29;99347.69;;;23.99;41.25
46081;BME280;31821;51.880;-0.518;2022-09-09T05:06:55;99369.22;;;24.13;41.80
46081;BME280;31821;51.880;-0.518;2022-09-09T05:09:21;99374.84;;;24.13;41.21
46081;BME280;31821;51.880;-0.518;2022-09-09T05:11:46;99379.25;;;24.14;41.42
46081;BME280;31821;51.880;-0.518;2022-09-09T05:14:12;99325.47;;;23.78;41.28
46081;BME280;31821;51.880;-0.518;2022-09-09T05:16:37;99315.09;;;23.71;41.27
46081;BME280;31821;51.880;-0.518;2022-09-09T05:19:03;99323.06;;;23.76;40.98
46081;BME280;31821;51.880;-0.518;2022-09-09T05:21:28;99257.81;;;23.26;41.91
46081;BME280;31821;51.880;-0.518;2022-09-09T05:23:56;99390.88;;;24.16;41.86
46081;BME280;31821;51.880;-0.518;2022-09-09T05:26:22;99397.75;;;24.15;41.44
46081;BME280;31821;51.880;-0.518;2022-09-09T05:28:48;99391.28;;;24.15;41.20
46081;BME280;31821;51.880;-0.518;2022-09-09T05:31:15;99396.47;;;24.20;41.35
46081;BME280;31821;51.880;-0.518;2022-09-09T05:33:43;99394.88;;;24.19;41.61
46081;BME280;31821;51.880;-0.518;2022-09-09T05:36:16;99405.69;;;24.21;41.80
46081;BME280;31821;51.880;-0.518;2022-09-09T05:38:43;99396.34;;;24.27;41.01
46081;BME280;31821;51.880;-0.518;2022-09-09T05:41:09;99394.38;;;24.24;40.72
46081;BME280;31821;51.880;-0.518;2022-09-09T05:43:41;99356.88;;;24.03;40.95
46081;BME280;31821;51.880;-0.518;2022-09-09T05:46:14;99402.75;;;24.31;40.76
46081;BME280;31821;51.880;-0.518;2022-09-09T05:48:42;99403.53;;;24.32;41.24
46081;BME280;31821;51.880;-0.518;2022-09-09T05:51:12;99404.31;;;24.32;41.40
46081;BME280;31821;51.880;-0.518;2022-09-09T05:53:38;99413.19;;;24.31;40.88
46081;BME280;31821;51.880;-0.518;2022-09-09T05:56:04;99416.44;;;24.29;41.13
46081;BME280;31821;51.880;-0.518;2022-09-09T05:58:31;99363.84;;;23.95;41.00
46081;BME280;31821;51.880;-0.518;2022-09-09T06:01:15;99424.84;;;24.33;41.19
46081;BME280;31821;51.880;-0.518;2022-09-09T06:03:42;99405.25;;;24.22;40.59
46081;BME280;31821;51.880;-0.518;2022-09-09T06:06:14;99354.75;;;23.80;41.62
46081;BME280;31821;51.880;-0.518;2022-09-09T06:08:42;99430.19;;;24.24;40.52
46081;BME280;31821;51.880;-0.518;2022-09-09T06:11:16;99436.25;;;24.22;41.30
46081;BME280;31821;51.880;-0.518;2022-09-09T06:13:43;99418.56;;;24.22;40.70
46081;BME280;31821;51.880;-0.518;2022-09-09T06:16:13;99445.72;;;24.35;40.65
46081;BME280;31821;51.880;-0.518;2022-09-09T06:18:39;99437.69;;;24.34;40.74
46081;BME280;31821;51.880;-0.518;2022-09-09T06:21:08;99440.44;;;24.38;41.00
46081;BME280;31821;51.880;-0.518;2022-09-09T06:23:34;99446.09;;;24.38;40.38
46081;BME280;31821;51.880;-0.518;2022-09-09T06:26:12;99403.38;;;24.15;40.70
46081;BME280;31821;51.880;-0.518;2022-09-09T06:28:38;99441.84;;;24.26;40.66
46081;BME280;31821;51.880;-0.518;2022-09-09T06:31:06;99449.34;;;24.36;40.62
46081;BME280;31821;51.880;-0.518;2022-09-09T06:33:34;99452.19;;;24.32;41.24
46081;BME280;31821;51.880;-0.518;2022-09-09T06:36:01;99442.16;;;24.31;41.33
46081;BME280;31821;51.880;-0.518;2022-09-09T06:38:27;99399.09;;;24.03;40.98
46081;BME280;31821;51.880;-0.518;2022-09-09T06:40:53;99439.03;;;24.26;40.78
46081;BME280;31821;51.880;-0.518;2022-09-09T06:43:21;99461.81;;;24.35;40.96
46081;BME280;31821;51.880;-0.518;2022-09-09T06:46:00;99466.59;;;24.38;40.33
46081;BME280;31821;51.880;-0.518;2022-09-09T06:48:27;99443.41;;;24.27;40.45
46081;BME280;31821;51.880;-0.518;2022-09-09T06:51:10;99437.06;;;24.23;41.22
46081;BME280;31821;51.880;-0.518;2022-09-09T06:53:40;99460.22;;;24.34;40.88
46081;BME280;31821;51.880;-0.518;2022-09-09T06:58:58;99478.63;;;24.42;40.69
46081;BME280;31821;51.880;-0.518;2022-09-09T07:01:28;99471.09;;;24.32;40.44
46081;BME280;31821;51.880;-0.518;2022-09-09T07:03:57;99484.34;;;24.35;41.11
46081;BME280;31821;51.880;-0.518;2022-09-09T07:06:29;99430.94;;;24.00;40.73
46081;BME280;31821;51.880;-0.518;2022-09-09T07:08:57;99474.72;;;24.32;40.50
46081;BME280;31821;51.880;-0.518;2022-09-09T07:11:38;99468.41;;;24.25;40.93
46081;BME280;31821;51.880;-0.518;2022-09-09T07:14:04;99495.97;;;24.37;41.14
46081;BME280;31821;51.880;-0.518;2022-09-09T07:16:29;99476.38;;;24.30;40.54
46081;BME280;31821;51.880;-0.518;2022-09-09T07:18:57;99472.00;;;24.25;40.61
46081;BME280;31821;51.880;-0.518;2022-09-09T07:21:24;99497.16;;;24.40;40.57
46081;BME280;31821;51.880;-0.518;2022-09-09T07:23:51;99496.78;;;24.38;40.08
46081;BME280;31821;51.880;-0.518;2022-09-09T07:26:18;99492.75;;;24.39;40.14
46081;BME280;31821;51.880;-0.518;2022-09-09T07:28:47;99495.63;;;24.35;40.85
46081;BME280;31821;51.880;-0.518;2022-09-09T07:31:22;99494.72;;;24.42;40.45
46081;BME280;31821;51.880;-0.518;2022-09-09T07:33:49;99500.94;;;24.29;40.45
46081;BME280;31821;51.880;-0.518;2022-09-09T07:36:17;99507.41;;;24.26;41.21
46081;BME280;31821;51.880;-0.518;2022-09-09T07:38:45;99505.47;;;24.19;42.13
46081;BME280;31821;51.880;-0.518;2022-09-09T07:41:14;99510.75;;;24.14;42.44
46081;BME280;31821;51.880;-0.518;2022-09-09T07:43:41;99511.16;;;24.16;42.22
46081;BME280;31821;51.880;-0.518;2022-09-09T07:46:08;99513.25;;;24.08;43.24
46081;BME280;31821;51.880;-0.518;2022-09-09T07:48:34;99506.06;;;24.03;42.93
46081;BME280;31821;51.880;-0.518;2022-09-09T07:51:16;99524.50;;;24.08;43.62
46081;BME280;31821;51.880;-0.518;2022-09-09T07:53:44;99505.78;;;23.91;42.64
46081;BME280;31821;51.880;-0.518;2022-09-09T07:56:14;99527.75;;;24.07;43.40
46081;BME280;31821;51.880;-0.518;2022-09-09T07:58:40;99492.59;;;23.84;42.94
46081;BME280;31821;51.880;-0.518;2022-09-09T08:01:11;99537.47;;;24.02;43.51
46081;BME280;31821;51.880;-0.518;2022-09-09T08:03:37;99405.81;;;23.09;43.56
46081;BME280;31821;51.880;-0.518;2022-09-09T08:06:04;99507.59;;;23.73;43.91
46081;BME280;31821;51.880;-0.518;2022-09-09T08:08:32;99536.31;;;23.92;42.69
46081;BME280;31821;51.880;-0.518;2022-09-09T08:11:17;99515.13;;;23.84;43.42
46081;BME280;31821;51.880;-0.518;2022-09-09T08:13:43;99499.53;;;23.76;43.39
46081;BME280;31821;51.880;-0.518;2022-09-09T08:16:18;99552.31;;;24.06;43.19
46081;BME280;31821;51.880;-0.518;2022-09-09T08:18:47;99557.03;;;24.13;42.25
46081;BME280;31821;51.880;-0.518;2022-09-09T08:21:16;99558.13;;;24.23;42.43
46081;BME280;31821;51.880;-0.518;2022-09-09T08:23:44;99487.50;;;23.71;42.72
46081;BME280;31821;51.880;-0.518;2022-09-09T08:26:13;99561.06;;;24.12;42.87
46081;BME280;31821;51.880;-0.518;2022-09-09T08:28:40;99531.91;;;23.91;42.78
46081;BME280;31821;51.880;-0.518;2022-09-09T08:31:14;99549.56;;;23.99;43.14
46081;BME280;31821;51.880;-0.518;2022-09-09T08:33:41;99523.59;;;23.80;43.41
46081;BME280;31821;51.880;-0.518;2022-09-09T08:36:10;99568.28;;;24.13;43.17
46081;BME280;31821;51.880;-0.518;2022-09-09T08:38:37;99537.97;;;23.89;43.56
46081;BME280;31821;51.880;-0.518;2022-09-09T08:41:31;99572.59;;;24.25;42.67
46081;BME280;31821;51.880;-0.518;2022-09-09T08:44:26;99579.34;;;24.31;42.97
46081;BME280;31821;51.880;-0.518;2022-09-09T08:53:05;99590.59;;;24.31;42.18
46081;BME280;31821;51.880;-0.518;2022-09-09T09:00:47;99591.72;;;24.41;42.77
46081;BME280;31821;51.880;-0.518;2022-09-09T09:03:25;99585.38;;;24.33;43.34
46081;BME280;31821;51.880;-0.518;2022-09-09T09:06:22;99573.88;;;24.16;44.05
46081;BME280;31821;51.880;-0.518;2022-09-09T09:11:20;99604.38;;;24.56;42.59
46081;BME280;31821;51.880;-0.518;2022-09-09T09:14:03;99586.81;;;24.45;43.36
46081;BME280;31821;51.880;-0.518;2022-09-09T09:19:34;99615.53;;;24.67;42.78
46081;BME280;31821;51.880;-0.518;2022-09-09T09:29:47;99570.44;;;24.36;42.92
46081;BME280;31821;51.880;-0.518;2022-09-09T09:32:17;99637.94;;;24.78;42.75
46081;BME280;31821;51.880;-0.518;2022-09-09T09:34:49;99623.91;;;24.74;42.32
46081;BME280;31821;51.880;-0.518;2022-09-09T09:37:22;99598.41;;;24.50;42.45
46081;BME280;31821;51.880;-0.518;2022-09-09T09:39:53;99637.94;;;24.78;42.46
46081;BME280;31821;51.880;-0.518;2022-09-09T09:42:18;99620.34;;;24.66;42.40
46081;BME280;31821;51.880;-0.518;2022-09-09T09:44:44;99584.91;;;24.69;41.69
46081;BME280;31821;51.880;-0.518;2022-09-09T09:47:14;99639.47;;;25.14;42.03
46081;BME280;31821;51.880;-0.518;2022-09-09T09:49:51;99649.97;;;25.13;41.45
46081;BME280;31821;51.880;-0.518;2022-09-09T09:52:22;99621.13;;;25.02;41.22
46081;BME280;31821;51.880;-0.518;2022-09-09T09:54:48;99616.25;;;25.02;41.77
46081;BME280;31821;51.880;-0.518;2022-09-09T09:57:15;99610.56;;;25.06;41.06
46081;BME280;31821;51.880;-0.518;2022-09-09T09:59:42;99656.97;;;25.28;41.71
46081;BME280;31821;51.880;-0.518;2022-09-09T10:02:23;99661.38;;;25.30;41.09
46081;BME280;31821;51.880;-0.518;2022-09-09T10:05:15;99659.25;;;25.37;40.63
46081;BME280;31821;51.880;-0.518;2022-09-09T10:07:41;99627.28;;;25.20;41.46
46081;BME280;31821;51.880;-0.518;2022-09-09T10:10:24;99637.91;;;25.36;40.50
46081;BME280;31821;51.880;-0.518;2022-09-09T10:13:08;99645.16;;;25.37;40.87
46081;BME280;31821;51.880;-0.518;2022-09-09T10:16:08;99645.56;;;25.36;41.09
46081;BME280;31821;51.880;-0.518;2022-09-09T10:29:24;99668.44;;;25.69;40.16
46081;BME280;31821;51.880;-0.518;2022-09-09T10:38:10;99664.59;;;25.83;39.37
46081;BME280;31821;51.880;-0.518;2022-09-09T10:51:45;99668.75;;;26.22;38.49
46081;BME280;31821;51.880;-0.518;2022-09-09T10:54:34;99670.63;;;26.29;39.01
46081;BME280;31821;51.880;-0.518;2022-09-09T10:57:15;99671.78;;;26.31;38.44
46081;BME280;31821;51.880;-0.518;2022-09-09T10:59:49;99668.94;;;26.35;38.15
46081;BME280;31821;51.880;-0.518;2022-09-09T11:02:30;99674.91;;;26.37;37.97
46081;BME280;31821;51.880;-0.518;2022-09-09T11:05:04;99669.78;;;26.32;38.07
46081;BME280;31821;51.880;-0.518;2022-09-09T11:07:57;99661.09;;;26.23;37.20
46081;BME280;31821;51.880;-0.518;2022-09-09T11:10:38;99659.72;;;26.31;37.69
46081;BME280;31821;51.880;-0.518;2022-09-09T11:15:58;99643.31;;;26.22;37.29
46081;BME280;31821;51.880;-0.518;2022-09-09T11:18:28;99613.00;;;26.02;37.42
46081;BME280;31821;51.880;-0.518;2022-09-09T11:20:59;99660.94;;;26.30;37.56
46081;BME280;31821;51.880;-0.518;2022-09-09T11:23:39;99689.47;;;26.56;37.09
46081;BME280;31821;51.880;-0.518;2022-09-09T11:26:14;99648.13;;;26.25;37.61
46081;BME280;31821;51.880;-0.518;2022-09-09T11:31:53;99679.34;;;26.38;37.83
46081;BME280;31821;51.880;-0.518;2022-09-09T11:34:45;99682.53;;;26.40;38.27
46081;BME280;31821;51.880;-0.518;2022-09-09T11:40:18;99684.34;;;26.50;37.68
46081;BME280;31821;51.880;-0.518;2022-09-09T11:42:46;99669.47;;;26.46;37.54
46081;BME280;31821;51.880;-0.518;2022-09-09T11:45:24;99676.94;;;26.57;37.71
46081;BME280;31821;51.880;-0.518;2022-09-09T11:48:00;99675.66;;;26.41;37.99
46081;BME280;31821;51.880;-0.518;2022-09-09T11:53:17;99680.34;;;26.28;37.98
46081;BME280;31821;51.880;-0.518;2022-09-09T11:55:46;99660.03;;;26.13;38.29
46081;BME280;31821;51.880;-0.518;2022-09-09T12:00:48;99675.81;;;26.34;37.81
46081;BME280;31821;51.880;-0.518;2022-09-09T12:03:40;99686.66;;;26.35;37.97
46081;BME280;31821;51.880;-0.518;2022-09-09T12:06:24;99680.28;;;26.31;38.07
46081;BME280;31821;51.880;-0.518;2022-09-09T12:08:54;99683.75;;;26.39;38.19
46081;BME280;31821;51.880;-0.518;2022-09-09T12:11:27;99685.81;;;26.39;38.37
46081;BME280;31821;51.880;-0.518;2022-09-09T12:13:58;99683.16;;;26.28;38.07
46081;BME280;31821;51.880;-0.518;2022-09-09T12:19:16;99697.19;;;26.35;38.49
46081;BME280;31821;51.880;-0.518;2022-09-09T12:22:06;99682.00;;;26.25;38.42
46081;BME280;31821;51.880;-0.518;2022-09-09T12:24:39;99692.97;;;26.43;38.24
46081;BME280;31821;51.880;-0.518;2022-09-09T12:27:29;99680.28;;;26.51;38.44
46081;BME280;31821;51.880;-0.518;2022-09-09T12:30:09;99674.19;;;26.53;38.28
46081;BME280;31821;51.880;-0.518;2022-09-09T12:32:36;99691.38;;;26.62;38.42
46081;BME280;31821;51.880;-0.518;2022-09-09T12:35:09;99681.81;;;26.56;37.81
46081;BME280;31821;51.880;-0.518;2022-09-09T12:37:38;99679.78;;;26.57;38.18
46081;BME280;31821;51.880;-0.518;2022-09-09T12:40:28;99689.19;;;26.70;37.78
46081;BME280;31821;51.880;-0.518;2022-09-09T12:42:54;99696.09;;;26.69;38.11
46081;BME280;31821;51.880;-0.518;2022-09-09T12:45:24;99656.31;;;26.40;38.01
46081;BME280;31821;51.880;-0.518;2022-09-09T12:50:24;99700.50;;;26.70;37.69
46081;BME280;31821;51.880;-0.518;2022-09-09T12:52:56;99704.19;;;26.67;37.87
46081;BME280;31821;51.880;-0.518;2022-09-09T12:55:27;99651.59;;;26.33;37.98
46081;BME280;31821;51.880;-0.518;2022-09-09T12:57:55;99684.72;;;26.53;37.67
46081;BME280;31821;51.880;-0.518;2022-09-09T13:00:23;99708.50;;;26.75;37.72
46081;BME280;31821;51.880;-0.518;2022-09-09T13:02:55;99640.31;;;26.33;37.49
46081;BME280;31821;51.880;-0.518;2022-09-09T13:05:24;99685.22;;;26.67;37.78
46081;BME280;31821;51.880;-0.518;2022-09-09T13:07:50;99709.53;;;26.85;37.65
46081;BME280;31821;51.880;-0.518;2022-09-09T13:10:22;99711.84;;;26.90;37.90
46081;BME280;31821;51.880;-0.518;2022-09-09T13:12:48;99694.72;;;26.77;37.88
46081;BME280;31821;51.880;-0.518;2022-09-09T13:15:24;99700.38;;;26.77;37.80
46081;BME280;31821;51.880;-0.518;2022-09-09T13:17:54;99709.44;;;26.89;37.37
46081;BME280;31821;51.880;-0.518;2022-09-09T13:20:21;99720.53;;;27.00;37.46
46081;BME280;31821;51.880;-0.518;2022-09-09T13:22:49;99686.25;;;26.77;37.44
46081;BME280;31821;51.880;-0.518;2022-09-09T13:25:27;99735.91;;;26.99;37.66
46081;BME280;31821;51.880;-0.518;2022-09-09T13:30:34;99735.19;;;26.94;38.07
46081;BME280;31821;51.880;-0.518;2022-09-09T13:35:35;99734.41;;;26.94;38.21
46081;BME280;31821;51.880;-0.518;2022-09-09T13:38:08;99735.34;;;26.87;38.93
46081;BME280;31821;51.880;-0.518;2022-09-09T13:40:35;99745.34;;;26.92;38.96
46081;BME280;31821;51.880;-0.518;2022-09-09T13:43:02;99735.72;;;26.89;39.18
46081;BME280;31821;51.880;-0.518;2022-09-09T13:45:28;99708.53;;;26.72;39.42
46081;BME280;31821;51.880;-0.518;2022-09-09T13:47:54;99719.31;;;26.80;39.40
46081;BME280;31821;51.880;-0.518;2022-09-09T13:52:53;99742.00;;;26.97;39.68
46081;BME280;31821;51.880;-0.518;2022-09-09T13:55:21;99740.41;;;26.96;39.53
46081;BME280;31821;51.880;-0.518;2022-09-09T13:58:14;99740.41;;;26.96;39.45
46081;BME280;31821;51.880;-0.518;2022-09-09T14:00:40;99736.28;;;27.01;39.55
46081;BME280;31821;51.880;-0.518;2022-09-09T14:03:06;99733.78;;;27.03;39.06
46081;BME280;31821;51.880;-0.518;2022-09-09T14:05:33;99734.97;;;27.05;39.13
46081;BME280;31821;51.880;-0.518;2022-09-09T14:07:59;99717.94;;;26.89;38.70
46081;BME280;31821;51.880;-0.518;2022-09-09T14:10:25;99733.75;;;27.06;39.00
46081;BME280;31821;51.880;-0.518;2022-09-09T14:12:51;99734.81;;;27.12;38.86
46081;BME280;31821;51.880;-0.518;2022-09-09T14:15:18;99716.97;;;26.95;39.01
46081;BME280;31821;51.880;-0.518;2022-09-09T14:17:44;99746.56;;;27.11;38.68
46081;BME280;31821;51.880;-0.518;2022-09-09T14:20:10;99707.50;;;26.86;38.45
46081;BME280;31821;51.880;-0.518;2022-09-09T14:22:37;99753.00;;;27.11;38.49
46081;BME280;31821;51.880;-0.518;2022-09-09T14:25:05;99733.78;;;27.03;38.30
46081;BME280;31821;51.880;-0.518;2022-09-09T14:27:31;99738.75;;;26.99;38.11
46081;BME280;31821;51.880;-0.518;2022-09-09T14:29:58;99716.31;;;26.88;38.33
46081;BME280;31821;51.880;-0.518;2022-09-09T14:32:26;99750.53;;;27.13;38.62
46081;BME280;31821;51.880;-0.518;2022-09-09T14:34:52;99737.34;;;27.07;38.24
46081;BME280;31821;51.880;-0.518;2022-09-09T14:37:18;99684.28;;;26.74;38.54
46081;BME280;31821;51.880;-0.518;2022-09-09T14:39:44;99745.59;;;27.18;38.33
46081;BME280;31821;51.880;-0.518;2022-09-09T14:42:10;99714.44;;;27.01;38.13
46081;BME280;31821;51.880;-0.518;2022-09-09T14:44:37;99728.56;;;27.01;38.09
46081;BME280;31821;51.880;-0.518;2022-09-09T14:47:06;99759.69;;;27.21;37.95
46081;BME280;31821;51.880;-0.518;2022-09-09T14:49:35;99761.63;;;27.24;38.11
46081;BME280;31821;51.880;-0.518;2022-09-09T14:52:01;99755.09;;;27.27;38.13
46081;BME280;31821;51.880;-0.518;2022-09-09T14:54:27;99755.09;;;27.27;38.19
46081;BME280;31821;51.880;-0.518;2022-09-09T14:56:53;99761.97;;;27.26;37.66
46081;BME280;31821;51.880;-0.518;2022-09-09T14:59:19;99759.94;;;27.27;37.67
46081;BME280;31821;51.880;-0.518;2022-09-09T15:01:44;99773.41;;;27.39;37.73
46081;BME280;31821;51.880;-0.518;2022-09-09T15:04:11;99774.59;;;27.42;37.79